createdAt,value
2023-09-17T00:01:48.199Z,3.70
2023-09-17T00:04:16.434Z,3.50
2023-09-17T00:06:44.694Z,3.47
2023-09-17T00:09:14.405Z,3.75
2023-09-17T00:11:42.376Z,3.90
2023-09-17T00:14:10.378Z,3.58
2023-09-17T00:16:40.006Z,3.30
2023-09-17T00:19:08.845Z,3.75
2023-09-17T00:21:36.763Z,3.92
2023-09-17T00:24:04.903Z,3.10
2023-09-17T00:26:34.351Z,3.97
2023-09-17T00:29:02.841Z,3.85
2023-09-17T00:31:30.897Z,3.60
2023-09-17T00:33:58.948Z,4.40
2023-09-17T00:36:27.760Z,4.45
2023-09-17T00:38:55.779Z,3.80
2023-09-17T00:41:23.849Z,4.00
2023-09-17T00:43:53.460Z,3.20
2023-09-17T00:46:21.975Z,3.95
2023-09-17T00:48:50.166Z,4.00
2023-09-17T00:51:18.178Z,4.15
2023-09-17T00:53:46.214Z,4.05
2023-09-17T00:56:14.215Z,4.05
2023-09-17T00:58:42.520Z,4.15
2023-09-17T01:01:13.202Z,3.95
2023-09-17T01:03:41.537Z,3.67
2023-09-17T01:06:12.696Z,4.03
2023-09-17T01:08:42.090Z,3.63
2023-09-17T01:11:11.255Z,3.58
2023-09-17T01:13:42.038Z,4.13
2023-09-17T01:16:11.818Z,3.70
2023-09-17T01:18:39.885Z,3.90
2023-09-17T01:21:12.592Z,3.97
2023-09-17T01:23:45.109Z,3.75
2023-09-17T01:26:17.019Z,4.20
2023-09-17T01:28:46.507Z,4.57
2023-09-17T01:31:17.440Z,3.88
2023-09-17T01:33:45.478Z,3.90
2023-09-17T01:36:16.924Z,3.50
2023-09-17T01:38:48.448Z,3.40
2023-09-17T01:41:16.885Z,3.50
2023-09-17T01:43:46.843Z,3.97
2023-09-17T01:46:17.878Z,3.63
2023-09-17T01:48:47.398Z,4.05
2023-09-17T01:51:15.798Z,3.60
2023-09-17T01:53:44.214Z,3.80
2023-09-17T01:56:14.665Z,3.38
2023-09-17T01:58:42.671Z,3.63
2023-09-17T02:01:12.178Z,3.85
2023-09-17T02:03:40.403Z,4.03
2023-09-17T02:06:08.416Z,3.75
2023-09-17T02:08:37.885Z,4.45
2023-09-17T02:11:07.700Z,3.60
2023-09-17T02:13:35.806Z,3.60
2023-09-17T02:16:04.311Z,3.88
2023-09-17T02:21:01.518Z,4.13
2023-09-17T02:23:29.516Z,3.72
2023-09-17T02:25:57.639Z,3.95
2023-09-17T02:28:25.807Z,3.67
2023-09-17T02:30:53.905Z,3.75
2023-09-17T02:33:21.897Z,4.18
2023-09-17T02:35:51.725Z,3.72
2023-09-17T02:38:20.036Z,3.72
2023-09-17T02:40:48.117Z,4.00
2023-09-17T02:43:16.274Z,3.97
2023-09-17T02:45:45.156Z,4.30
2023-09-17T02:48:14.321Z,4.03
2023-09-17T02:50:42.359Z,3.72
2023-09-17T02:53:12.114Z,3.60
2023-09-17T02:55:40.885Z,3.28
2023-09-17T02:58:12.118Z,3.63
2023-09-17T03:00:40.978Z,3.70
2023-09-17T03:03:09.061Z,3.72
2023-09-17T03:05:37.092Z,3.85
2023-09-17T03:08:06.919Z,3.95
2023-09-17T03:10:43.141Z,3.72
2023-09-17T03:13:12.584Z,3.70
2023-09-17T03:15:41.338Z,4.00
2023-09-17T03:18:09.328Z,4.47
2023-09-17T03:20:39.298Z,3.88
2023-09-17T03:23:08.017Z,4.05
2023-09-17T03:25:37.725Z,4.63
2023-09-17T03:28:06.357Z,4.50
2023-09-17T03:33:05.313Z,3.40
2023-09-17T03:35:34.767Z,3.55
2023-09-17T03:38:02.705Z,3.72
2023-09-17T03:40:30.836Z,3.58
2023-09-17T03:43:00.198Z,3.40
2023-09-17T03:45:28.386Z,3.40
2023-09-17T03:47:56.374Z,3.85
2023-09-17T03:50:24.778Z,3.53
2023-09-17T03:52:55.223Z,3.80
2023-09-17T03:55:25.193Z,3.90
2023-09-17T03:57:54.296Z,3.83
2023-09-17T04:00:25.177Z,4.22
2023-09-17T04:02:54.091Z,3.53
2023-09-17T04:05:22.850Z,3.92
2023-09-17T04:07:50.934Z,4.18
2023-09-17T04:10:19.970Z,4.20
2023-09-17T04:12:48.627Z,3.70
2023-09-17T04:17:48.544Z,3.70
2023-09-17T04:20:19.858Z,3.33
2023-09-17T04:22:50.362Z,3.13
2023-09-17T04:25:20.173Z,3.53
2023-09-17T04:27:49.038Z,3.95
2023-09-17T04:30:18.047Z,4.07
2023-09-17T04:32:48.954Z,3.15
2023-09-17T04:35:18.784Z,3.80
2023-09-17T04:37:48.360Z,3.85
2023-09-17T04:40:16.817Z,4.05
2023-09-17T04:42:47.254Z,3.60
2023-09-17T04:45:33.833Z,3.55
2023-09-17T04:48:03.331Z,4.10
2023-09-17T04:50:31.489Z,3.70
2023-09-17T04:52:59.968Z,3.90
2023-09-17T04:57:56.041Z,3.50
2023-09-17T05:00:24.222Z,4.03
2023-09-17T05:02:52.315Z,3.53
2023-09-17T05:05:25.019Z,4.13
2023-09-17T05:07:54.885Z,3.95
2023-09-17T05:10:23.061Z,3.65
2023-09-17T05:12:51.121Z,4.13
2023-09-17T05:15:19.246Z,4.13
2023-09-17T05:17:47.337Z,3.95
2023-09-17T05:20:15.486Z,3.83
2023-09-17T05:22:44.962Z,3.70
2023-09-17T05:25:12.980Z,3.53
2023-09-17T05:27:41.089Z,3.58
2023-09-17T05:30:10.305Z,4.43
2023-09-17T05:32:38.338Z,4.07
2023-09-17T05:35:08.558Z,4.05
2023-09-17T05:37:36.566Z,3.67
2023-09-17T05:40:08.111Z,4.35
2023-09-17T05:42:36.018Z,3.53
2023-09-17T05:45:04.918Z,4.05
2023-09-17T05:47:32.971Z,4.15
2023-09-17T05:50:01.134Z,3.40
2023-09-17T05:52:30.077Z,4.20
2023-09-17T05:54:58.098Z,3.85
2023-09-17T05:57:27.509Z,5.05
2023-09-17T05:59:55.447Z,3.67
2023-09-17T06:02:23.638Z,4.13
2023-09-17T06:04:54.508Z,3.95
2023-09-17T06:07:22.868Z,3.55
2023-09-17T06:09:51.117Z,4.25
2023-09-17T06:12:19.091Z,3.67
2023-09-17T06:14:48.501Z,3.58
2023-09-17T06:17:16.645Z,3.92
2023-09-17T06:19:44.641Z,3.75
2023-09-17T06:22:13.872Z,3.92
2023-09-17T06:24:41.932Z,3.75
2023-09-17T06:27:09.917Z,3.50
2023-09-17T06:29:37.903Z,3.83
2023-09-17T06:32:07.653Z,4.13
2023-09-17T06:34:36.548Z,3.88
2023-09-17T06:37:05.261Z,3.78
2023-09-17T06:39:33.366Z,3.97
2023-09-17T06:42:01.336Z,4.15
2023-09-17T06:44:29.409Z,3.60
2023-09-17T06:46:57.656Z,3.95
2023-09-17T06:49:27.287Z,3.58
2023-09-17T06:51:55.762Z,4.25
2023-09-17T06:54:23.793Z,3.67
2023-09-17T06:56:53.222Z,3.92
2023-09-17T06:59:21.228Z,4.05
2023-09-17T07:01:49.278Z,4.03
2023-09-17T07:04:17.433Z,3.85
2023-09-17T07:06:46.827Z,3.70
2023-09-17T07:09:15.396Z,3.70
2023-09-17T07:14:11.637Z,3.95
2023-09-17T07:19:08.847Z,4.20
2023-09-17T07:21:36.829Z,4.18
2023-09-17T07:24:06.743Z,3.38
2023-09-17T07:26:34.865Z,4.68
2023-09-17T07:29:04.877Z,4.32
2023-09-17T07:31:33.200Z,3.78
2023-09-17T07:34:01.244Z,3.70
2023-09-17T07:36:29.580Z,4.13
2023-09-17T07:38:57.765Z,4.78
2023-09-17T07:41:27.157Z,5.90
2023-09-17T07:43:55.447Z,5.75
2023-09-17T07:46:23.786Z,5.80
2023-09-17T07:48:52.207Z,5.97
2023-09-17T07:51:20.676Z,5.85
2023-09-17T07:56:18.934Z,6.05
2023-09-17T07:58:48.877Z,6.10
2023-09-17T08:01:17.212Z,7.20
2023-09-17T08:03:45.392Z,6.22
2023-09-17T08:06:13.732Z,6.65
2023-09-17T08:08:43.815Z,6.03
2023-09-17T08:11:11.887Z,7.13
2023-09-17T08:13:39.968Z,6.72
2023-09-17T08:16:09.445Z,6.70
2023-09-17T08:18:37.591Z,6.82
2023-09-17T08:21:05.714Z,6.85
2023-09-17T08:23:33.728Z,7.50
2023-09-17T08:26:01.770Z,7.45
2023-09-17T08:28:29.847Z,6.72
2023-09-17T08:30:57.985Z,7.13
2023-09-17T08:33:27.324Z,6.68
2023-09-17T08:35:55.349Z,6.95
2023-09-17T08:38:23.427Z,7.40
2023-09-17T08:40:51.771Z,7.53
2023-09-17T08:43:20.513Z,6.95
2023-09-17T08:45:49.132Z,7.00
2023-09-17T08:48:18.808Z,7.18
2023-09-17T08:50:51.910Z,7.15
2023-09-17T08:53:24.480Z,7.80
2023-09-17T08:55:56.088Z,6.60
2023-09-17T08:58:27.244Z,7.03
2023-09-17T09:00:59.135Z,7.00
2023-09-17T09:03:29.413Z,6.78
2023-09-17T09:05:59.952Z,6.60
2023-09-17T09:08:28.467Z,6.90
2023-09-17T09:13:24.528Z,6.80
2023-09-17T09:15:52.961Z,7.10
2023-09-17T09:18:20.988Z,6.63
2023-09-17T09:20:49.061Z,7.55
2023-09-17T09:23:18.651Z,7.18
2023-09-17T09:25:47.148Z,8.70
2023-09-17T09:30:44.768Z,7.00
2023-09-17T09:33:13.597Z,6.80
2023-09-17T09:35:42.245Z,6.63
2023-09-17T09:40:41.793Z,6.90
2023-09-17T09:43:19.335Z,6.80
2023-09-17T09:45:49.344Z,7.82
2023-09-17T09:48:17.419Z,7.22
2023-09-17T09:50:47.354Z,6.88
2023-09-17T09:53:16.107Z,7.15
2023-09-17T09:55:45.607Z,6.65
2023-09-17T09:58:14.632Z,7.03
2023-09-17T10:00:46.405Z,6.90
2023-09-17T10:03:15.076Z,7.35
2023-09-17T10:05:43.415Z,6.95
2023-09-17T10:08:12.260Z,6.93
2023-09-17T10:10:41.132Z,5.90
2023-09-17T10:13:11.766Z,6.07
2023-09-17T10:15:42.624Z,6.85
2023-09-17T10:18:13.522Z,7.32
2023-09-17T10:20:42.948Z,6.88
2023-09-17T10:23:11.918Z,7.47
2023-09-17T10:25:42.398Z,6.78
2023-09-17T10:28:13.136Z,7.18
2023-09-17T10:30:41.548Z,6.38
2023-09-17T10:33:10.922Z,6.55
2023-09-17T10:35:39.984Z,6.60
2023-09-17T10:38:10.398Z,6.70
2023-09-17T10:40:39.171Z,6.97
2023-09-17T10:43:07.873Z,6.72
2023-09-17T10:45:38.957Z,6.30
2023-09-17T10:48:07.622Z,6.70
2023-09-17T10:50:38.043Z,6.28
2023-09-17T10:53:07.045Z,5.93
2023-09-17T10:55:39.032Z,5.97
2023-09-17T10:58:12.374Z,5.85
2023-09-17T11:00:44.297Z,5.38
2023-09-17T11:03:14.839Z,5.95
2023-09-17T11:05:44.580Z,4.97
2023-09-17T11:08:12.760Z,4.45
2023-09-17T11:10:43.447Z,5.22
2023-09-17T11:13:15.490Z,5.78
2023-09-17T11:15:45.234Z,5.93
2023-09-17T11:18:13.280Z,4.95
2023-09-17T11:20:59.588Z,5.47
2023-09-17T11:23:41.128Z,4.68
2023-09-17T11:26:09.632Z,4.72
2023-09-17T11:31:11.384Z,4.65
2023-09-17T11:33:39.921Z,5.65
2023-09-17T11:36:08.588Z,3.78
2023-09-17T11:38:36.657Z,4.68
2023-09-17T11:41:06.090Z,4.50
2023-09-17T11:43:35.086Z,4.25
2023-09-17T11:46:05.989Z,3.85
2023-09-17T11:48:37.063Z,4.68
2023-09-17T11:51:25.601Z,4.13
2023-09-17T11:53:59.270Z,4.55
2023-09-17T11:56:29.488Z,4.20
2023-09-17T11:59:07.895Z,4.35
2023-09-17T12:01:38.714Z,4.53
2023-09-17T12:04:09.957Z,4.03
2023-09-17T12:06:41.116Z,5.20
2023-09-17T12:09:17.223Z,4.22
2023-09-17T12:11:47.447Z,4.47
2023-09-17T12:14:16.012Z,4.47
2023-09-17T12:16:44.406Z,4.38
2023-09-17T12:19:18.424Z,4.20
2023-09-17T12:21:49.083Z,3.83
2023-09-17T12:24:29.413Z,3.72
2023-09-17T12:27:27.190Z,3.72
2023-09-17T12:29:55.603Z,4.57
2023-09-17T12:32:26.350Z,3.70
2023-09-17T12:34:57.402Z,4.22
2023-09-17T12:37:26.812Z,4.40
2023-09-17T12:39:55.437Z,4.28
2023-09-17T12:44:52.343Z,4.43
2023-09-17T12:47:20.954Z,4.18
2023-09-17T12:52:18.510Z,4.20
2023-09-17T12:54:46.739Z,4.10
2023-09-17T12:57:15.997Z,4.47
2023-09-17T12:59:44.027Z,4.05
2023-09-17T13:02:14.608Z,3.97
2023-09-17T13:04:44.032Z,3.80
2023-09-17T13:07:18.840Z,3.85
2023-09-17T13:09:48.046Z,3.40
2023-09-17T13:12:18.618Z,3.95
2023-09-17T13:14:49.029Z,3.75
2023-09-17T13:17:17.538Z,3.65
2023-09-17T13:19:45.927Z,3.63
2023-09-17T13:22:14.018Z,4.85
2023-09-17T13:24:43.766Z,4.35
2023-09-17T13:27:12.026Z,3.85
2023-09-17T13:29:41.514Z,3.60
2023-09-17T13:32:11.863Z,3.80
2023-09-17T13:34:40.755Z,4.07
2023-09-17T13:39:40.411Z,3.58
2023-09-17T13:42:10.151Z,3.83
2023-09-17T13:44:38.600Z,3.67
2023-09-17T13:47:10.648Z,3.75
2023-09-17T13:49:38.981Z,3.78
2023-09-17T13:52:08.128Z,4.00
2023-09-17T13:54:36.187Z,3.50
2023-09-17T13:57:04.742Z,3.40
2023-09-17T14:02:03.204Z,3.20
2023-09-17T14:04:31.265Z,3.63
2023-09-17T14:06:59.361Z,3.60
2023-09-17T14:09:27.536Z,3.53
2023-09-17T14:11:55.534Z,4.10
2023-09-17T14:14:23.590Z,3.92
2023-09-17T14:16:53.067Z,3.78
2023-09-17T14:19:21.117Z,4.18
2023-09-17T14:21:49.242Z,3.70
2023-09-17T14:24:17.445Z,3.40
2023-09-17T14:26:45.430Z,3.92
2023-09-17T14:29:13.930Z,3.60
2023-09-17T14:31:44.329Z,3.92
2023-09-17T14:34:14.101Z,3.75
2023-09-17T14:36:42.117Z,4.22
2023-09-17T14:39:12.191Z,3.60
2023-09-17T14:41:40.657Z,3.72
2023-09-17T14:44:09.021Z,4.07
2023-09-17T14:46:39.679Z,3.53
2023-09-17T14:49:08.314Z,3.53
2023-09-17T14:51:37.747Z,3.40
2023-09-17T14:54:06.575Z,3.88
2023-09-17T14:56:36.310Z,4.15
2023-09-17T14:59:05.072Z,3.63
2023-09-17T15:01:58.483Z,3.78
2023-09-17T15:04:21.312Z,3.70
2023-09-17T15:06:51.424Z,3.58
2023-09-17T15:09:19.723Z,3.38
2023-09-17T15:11:48.053Z,3.80
2023-09-17T15:14:16.124Z,3.70
2023-09-17T15:16:44.407Z,3.38
2023-09-17T15:19:12.573Z,3.70
2023-09-17T15:21:40.655Z,3.55
2023-09-17T15:24:10.212Z,3.60
2023-09-17T15:26:38.247Z,3.90
2023-09-17T15:29:06.372Z,3.63
2023-09-17T15:31:37.471Z,3.88
2023-09-17T15:34:05.815Z,4.03
2023-09-17T15:36:34.445Z,3.90
2023-09-17T15:41:31.565Z,3.53
2023-09-17T15:43:59.610Z,3.47
2023-09-17T15:46:27.679Z,3.75
2023-09-17T15:48:55.714Z,3.60
2023-09-17T15:51:23.725Z,3.92
2023-09-17T15:53:51.859Z,3.58
2023-09-17T15:56:19.860Z,3.80
2023-09-17T15:58:49.363Z,3.75
2023-09-17T16:01:17.536Z,3.60
2023-09-17T16:03:45.600Z,4.00
2023-09-17T16:06:13.797Z,3.65
2023-09-17T16:08:41.756Z,3.97
2023-09-17T16:11:09.726Z,3.75
2023-09-17T16:13:37.793Z,3.72
2023-09-17T16:16:07.218Z,3.63
2023-09-17T16:18:35.225Z,3.13
2023-09-17T16:21:03.197Z,3.50
2023-09-17T16:23:31.224Z,3.25
2023-09-17T16:25:59.301Z,3.10
2023-09-17T16:28:27.324Z,3.72
2023-09-17T16:30:55.335Z,3.63
2023-09-17T16:33:24.823Z,3.78
2023-09-17T16:35:52.932Z,3.35
2023-09-17T16:38:21.528Z,3.75
2023-09-17T16:43:18.036Z,3.83
2023-09-17T16:45:46.141Z,3.55
2023-09-17T16:48:14.230Z,3.35
2023-09-17T16:50:43.823Z,3.85
2023-09-17T16:53:11.783Z,3.53
2023-09-17T16:55:41.974Z,3.47
2023-09-17T16:58:10.033Z,3.50
2023-09-17T17:00:38.058Z,4.22
2023-09-17T17:03:06.752Z,3.20
2023-09-17T17:05:34.819Z,3.45
2023-09-17T17:08:07.834Z,3.50
2023-09-17T17:10:37.087Z,3.40
2023-09-17T17:13:05.587Z,3.10
2023-09-17T17:18:01.636Z,3.80
2023-09-17T17:20:29.801Z,3.60
2023-09-17T17:22:57.870Z,3.88
2023-09-17T17:25:27.241Z,3.55
2023-09-17T17:27:55.185Z,3.70
2023-09-17T17:30:23.432Z,3.75
2023-09-17T17:32:51.549Z,3.60
2023-09-17T17:35:21.637Z,3.20
2023-09-17T17:37:49.719Z,3.90
2023-09-17T17:40:23.514Z,3.65
2023-09-17T17:42:53.149Z,3.90
2023-09-17T17:45:21.833Z,3.90
2023-09-17T17:47:50.881Z,3.60
2023-09-17T17:50:19.125Z,3.60
2023-09-17T17:52:47.239Z,3.47
2023-09-17T17:55:15.159Z,3.72
2023-09-17T17:57:44.163Z,4.32
2023-09-17T18:00:14.942Z,4.07
2023-09-17T18:02:47.267Z,3.60
2023-09-17T18:05:15.657Z,3.70
2023-09-17T18:07:45.329Z,3.55
2023-09-17T18:10:15.108Z,3.42
2023-09-17T18:12:43.813Z,3.47
2023-09-17T18:15:18.802Z,4.30
2023-09-17T18:17:47.785Z,3.53
2023-09-17T18:20:17.953Z,3.20
2023-09-17T18:22:46.062Z,3.42
2023-09-17T18:25:14.717Z,3.88
2023-09-17T18:27:42.688Z,3.40
2023-09-17T18:30:11.317Z,3.55
2023-09-17T18:32:40.988Z,3.53
2023-09-17T18:35:09.694Z,3.67
2023-09-17T18:37:37.748Z,3.60
2023-09-17T18:40:06.251Z,4.00
2023-09-17T18:42:34.601Z,4.40
2023-09-17T18:45:05.337Z,3.88
2023-09-17T18:47:33.972Z,4.05
2023-09-17T18:50:03.449Z,3.63
2023-09-17T18:52:31.497Z,3.75
2023-09-17T18:55:02.343Z,3.90
2023-09-17T18:57:30.587Z,4.15
2023-09-17T18:59:58.939Z,3.90
2023-09-17T19:02:27.060Z,3.40
2023-09-17T19:04:55.172Z,3.65
2023-09-17T19:07:24.592Z,4.20
2023-09-17T19:09:52.590Z,4.25
2023-09-17T19:12:23.894Z,3.63
2023-09-17T19:14:52.106Z,4.10
2023-09-17T19:17:20.211Z,4.28
2023-09-17T19:19:48.304Z,4.25
2023-09-17T19:22:17.716Z,4.18
2023-09-17T19:24:47.064Z,3.80
2023-09-17T19:27:16.205Z,4.22
2023-09-17T19:29:44.279Z,4.32
2023-09-17T19:32:13.097Z,4.13
2023-09-17T19:34:41.664Z,4.20
2023-09-17T19:37:12.724Z,4.43
2023-09-17T19:39:41.009Z,4.80
2023-09-17T19:42:10.439Z,4.75
2023-09-17T19:44:38.573Z,4.35
2023-09-17T19:47:07.170Z,4.15
2023-09-17T19:49:35.336Z,4.45
2023-09-17T19:52:03.494Z,3.85
2023-09-17T19:54:31.545Z,4.07
2023-09-17T19:56:59.579Z,3.80
2023-09-17T19:59:29.061Z,3.72
2023-09-17T20:01:57.274Z,3.80
2023-09-17T20:04:25.440Z,3.88
2023-09-17T20:06:55.459Z,4.07
2023-09-17T20:09:24.298Z,4.10
2023-09-17T20:11:52.609Z,4.40
2023-09-17T20:14:21.506Z,4.30
2023-09-17T20:16:50.988Z,4.90
2023-09-17T20:19:19.020Z,4.60
2023-09-17T20:21:47.089Z,4.45
2023-09-17T20:24:15.232Z,4.68
2023-09-17T20:26:45.808Z,4.63
2023-09-17T20:29:14.120Z,4.78
2023-09-17T20:31:42.383Z,4.82
2023-09-17T20:34:14.985Z,4.68
2023-09-17T20:36:44.197Z,4.68
2023-09-17T20:39:12.175Z,4.18
2023-09-17T20:41:40.700Z,4.38
2023-09-17T20:46:36.561Z,4.80
2023-09-17T20:49:04.680Z,4.78
2023-09-17T20:51:34.150Z,4.43
2023-09-17T20:54:02.088Z,4.97
2023-09-17T20:56:30.178Z,4.30
2023-09-17T21:01:33.644Z,5.20
2023-09-17T21:04:02.141Z,4.97
2023-09-17T21:06:30.361Z,4.88
2023-09-17T21:09:04.562Z,5.30
2023-09-17T21:14:00.842Z,4.95
2023-09-17T21:16:29.466Z,4.88
2023-09-17T21:18:57.551Z,4.40
2023-09-17T21:21:25.548Z,4.68
2023-09-17T21:23:53.616Z,5.50
2023-09-17T21:26:22.971Z,4.95
2023-09-17T21:28:51.297Z,4.63
2023-09-17T21:33:47.577Z,4.45
2023-09-17T21:36:15.596Z,4.97
2023-09-17T21:38:43.621Z,4.47
2023-09-17T21:41:11.854Z,4.30
2023-09-17T21:43:41.281Z,4.47
2023-09-17T21:46:09.407Z,4.65
2023-09-17T21:48:37.406Z,4.43
2023-09-17T21:51:05.534Z,5.43
2023-09-17T21:53:33.562Z,4.20
2023-09-17T21:56:01.620Z,5.22
2023-09-17T21:58:29.659Z,4.18
2023-09-17T22:00:59.035Z,4.70
2023-09-17T22:03:27.334Z,4.53
2023-09-17T22:05:55.447Z,4.78
2023-09-17T22:08:25.287Z,4.72
2023-09-17T22:10:53.335Z,4.80
2023-09-17T22:13:21.318Z,4.40
2023-09-17T22:15:52.858Z,5.13
2023-09-17T22:18:22.213Z,5.10
2023-09-17T22:20:50.238Z,4.93
2023-09-17T22:23:19.188Z,4.68
2023-09-17T22:25:47.142Z,4.78
2023-09-17T22:28:16.123Z,4.20
2023-09-17T22:30:44.099Z,4.18
2023-09-17T22:33:12.113Z,4.28
2023-09-17T22:35:42.017Z,4.50
2023-09-17T22:38:10.538Z,4.32
2023-09-17T22:43:09.390Z,4.53
2023-09-17T22:45:39.339Z,4.45
2023-09-17T22:48:07.860Z,4.40
2023-09-17T22:53:05.456Z,5.20
2023-09-17T22:55:33.482Z,4.20
2023-09-17T22:58:01.480Z,4.30
2023-09-17T23:00:32.500Z,4.38
2023-09-17T23:03:00.688Z,4.75
2023-09-17T23:05:28.855Z,4.65
2023-09-17T23:07:56.913Z,4.65
2023-09-17T23:10:26.349Z,4.97
2023-09-17T23:12:54.336Z,4.43
2023-09-17T23:15:22.428Z,4.47
2023-09-17T23:17:50.389Z,5.03
2023-09-17T23:20:18.416Z,4.55
2023-09-17T23:22:46.386Z,4.40
2023-09-17T23:25:15.601Z,4.07
2023-09-17T23:27:44.916Z,4.28
2023-09-17T23:30:16.647Z,4.88
2023-09-17T23:32:45.250Z,4.38
2023-09-17T23:35:13.358Z,5.22
2023-09-17T23:37:41.376Z,4.63
2023-09-17T23:40:11.599Z,4.57
2023-09-17T23:42:39.577Z,5.00
2023-09-17T23:45:10.072Z,4.97
2023-09-17T23:47:38.149Z,4.43
2023-09-17T23:50:07.313Z,4.60
2023-09-17T23:52:35.198Z,4.63
2023-09-17T23:55:03.800Z,5.07
2023-09-17T23:57:31.866Z,4.70
